Time;durP1;ratioP1;P1;durP2;ratioP2;P2;SDS_P1;SDS_P2;PMS_P1;PMS_P2;Temp;Humidity;BMP_temperature;BMP_pressure;BME280_temperature;BME280_humidity;BME280_pressure;Samples;Min_cycle;Max_cycle;Signal;HPM_P1;HPM_P2
2023/12/08 00:01:34;;;;;;;148.68;101.78;;;;;;;;;;4965590;28;20031;-66
2023/12/08 00:03:59;;;;;;;146.07;99.72;;;;;;;;;;4955595;28;20034;-66
2023/12/08 00:06:25;;;;;;;142.15;97.93;;;;;;;;;;4967576;28;20023;-67
2023/12/08 00:08:52;;;;;;;157.27;106.03;;;;;;;;;;4959362;28;20105;-64
2023/12/08 00:11:18;;;;;;;135.05;93.35;;;;;;;;;;4961236;28;20035;-66
2023/12/08 00:13:44;;;;;;;142.25;95.93;;;;;;;;;;4965996;28;20038;-66
2023/12/08 00:16:10;;;;;;;141.75;96.43;;;;;;;;;;4954986;28;20031;-67
2023/12/08 00:18:36;;;;;;;137.93;95.60;;;;;;;;;;4966331;28;20027;-66
2023/12/08 00:21:02;;;;;;;143.50;95.18;;;;;;;;;;4960531;28;20027;-66
2023/12/08 00:23:29;;;;;;;145.52;96.95;;;;;;;;;;4959548;28;20020;-67
2023/12/08 00:25:55;;;;;;;132.38;88.88;;;;;;;;;;4958257;28;20031;-66
2023/12/08 00:28:21;;;;;;;123.43;82.47;;;;;;;;;;4968036;28;20398;-66
2023/12/08 00:30:47;;;;;;;131.73;92.00;;;;;;;;;;4958152;28;20023;-65
2023/12/08 00:33:13;;;;;;;123.65;84.25;;;;;;;;;;4961637;28;20483;-66
2023/12/08 00:35:39;;;;;;;127.25;88.38;;;;;;;;;;4963334;28;20030;-67
2023/12/08 00:38:05;;;;;;;132.98;89.07;;;;;;;;;;4983782;28;20021;-67
2023/12/08 00:40:31;;;;;;;107.15;72.65;;;;;;;;;;4966697;28;20498;-66
2023/12/08 00:42:57;;;;;;;135.40;89.50;;;;;;;;;;4959587;28;20037;-66
2023/12/08 00:45:24;;;;;;;129.57;86.53;;;;;;;;;;4959119;28;20027;-65
2023/12/08 00:47:49;;;;;;;116.07;76.68;;;;;;;;;;4966463;28;20088;-66
2023/12/08 00:50:16;;;;;;;113.05;75.90;;;;;;;;;;4955130;28;20487;-65
2023/12/08 00:52:42;;;;;;;116.10;78.93;;;;;;;;;;4965291;28;20015;-65
2023/12/08 00:55:08;;;;;;;113.55;74.85;;;;;;;;;;4960093;28;20019;-65
2023/12/08 00:57:34;;;;;;;116.07;77.25;;;;;;;;;;4958373;28;20103;-65
2023/12/08 01:00:00;;;;;;;114.30;79.13;;;;;;;;;;4967168;28;20509;-64
2023/12/08 01:02:26;;;;;;;109.50;72.85;;;;;;;;;;4955054;28;20026;-64
2023/12/08 01:04:52;;;;;;;116.05;76.65;;;;;;;;;;4963408;28;20020;-65
2023/12/08 01:07:18;;;;;;;110.28;75.35;;;;;;;;;;4961830;28;20023;-63
2023/12/08 01:09:44;;;;;;;105.28;70.28;;;;;;;;;;4956539;28;20431;-65
2023/12/08 01:12:10;;;;;;;106.22;69.00;;;;;;;;;;4967442;28;20035;-65
2023/12/08 01:14:36;;;;;;;102.50;68.78;;;;;;;;;;4956032;28;20058;-66
2023/12/08 01:17:02;;;;;;;99.70;64.90;;;;;;;;;;4962433;28;20035;-65
2023/12/08 01:19:28;;;;;;;94.25;63.85;;;;;;;;;;4964634;28;20076;-65
2023/12/08 01:21:54;;;;;;;93.25;59.63;;;;;;;;;;4958375;28;20402;-65
2023/12/08 01:24:20;;;;;;;95.38;63.55;;;;;;;;;;4969284;28;20016;-64
2023/12/08 01:26:46;;;;;;;97.63;64.15;;;;;;;;;;4962212;28;20039;-66
2023/12/08 01:29:12;;;;;;;99.07;65.10;;;;;;;;;;4962886;28;20031;-65
2023/12/08 01:31:38;;;;;;;92.47;63.20;;;;;;;;;;4958255;28;20509;-66
2023/12/08 01:34:04;;;;;;;98.07;62.55;;;;;;;;;;4967204;28;20074;-66
2023/12/08 01:36:30;;;;;;;98.35;66.03;;;;;;;;;;4954163;28;20439;-64
2023/12/08 01:38:57;;;;;;;96.00;62.78;;;;;;;;;;4962306;28;20041;-65
2023/12/08 01:41:23;;;;;;;98.03;66.05;;;;;;;;;;4962197;28;20037;-65
2023/12/08 01:43:49;;;;;;;87.70;58.85;;;;;;;;;;4955247;28;20161;-65
2023/12/08 01:46:16;;;;;;;87.28;58.30;;;;;;;;;;4966290;28;20080;-66
2023/12/08 01:48:42;;;;;;;83.40;55.20;;;;;;;;;;4956533;28;20026;-66
2023/12/08 01:51:10;;;;;;;91.75;58.25;;;;;;;;;;4961006;28;20030;-66
2023/12/08 01:53:36;;;;;;;84.35;56.03;;;;;;;;;;4963709;28;20042;-66
2023/12/08 01:56:02;;;;;;;92.45;61.92;;;;;;;;;;4953480;28;20491;-66
2023/12/08 01:58:28;;;;;;;92.50;60.30;;;;;;;;;;4965830;28;20062;-66
2023/12/08 02:00:55;;;;;;;77.32;52.53;;;;;;;;;;4957811;28;20050;-66
2023/12/08 02:03:22;;;;;;;75.93;51.85;;;;;;;;;;4959029;28;20019;-66
2023/12/08 02:05:48;;;;;;;74.70;51.22;;;;;;;;;;4964453;28;20027;-66
2023/12/08 02:08:15;;;;;;;78.38;53.58;;;;;;;;;;4953945;28;20102;-66
2023/12/08 02:10:41;;;;;;;79.50;53.58;;;;;;;;;;4965764;28;20030;-66
2023/12/08 02:13:07;;;;;;;74.38;50.55;;;;;;;;;;4960721;28;20142;-65
2023/12/08 02:15:33;;;;;;;81.78;56.35;;;;;;;;;;4962260;28;20042;-66
2023/12/08 02:17:59;;;;;;;76.47;52.10;;;;;;;;;;4953925;28;20019;-65
2023/12/08 02:20:25;;;;;;;74.65;50.05;;;;;;;;;;4966203;28;20047;-65
2023/12/08 02:22:52;;;;;;;74.55;49.88;;;;;;;;;;4957282;28;20109;-65
2023/12/08 02:25:17;;;;;;;80.47;53.05;;;;;;;;;;4961846;28;20496;-65
2023/12/08 02:27:44;;;;;;;68.88;46.35;;;;;;;;;;4955520;28;20098;-65
2023/12/08 02:30:10;;;;;;;69.88;47.15;;;;;;;;;;4966383;28;20026;-65
2023/12/08 02:32:48;;;;;;;66.97;45.70;;;;;;;;;;4955211;28;20027;-65
2023/12/08 02:35:16;;;;;;;66.97;46.78;;;;;;;;;;4958743;28;20027;-65
2023/12/08 02:37:45;;;;;;;70.82;46.78;;;;;;;;;;4963875;28;20034;-65
2023/12/08 02:40:11;;;;;;;69.85;45.85;;;;;;;;;;4952132;28;20052;-65
2023/12/08 02:42:37;;;;;;;68.50;46.53;;;;;;;;;;4964321;28;20470;-65
2023/12/08 02:45:04;;;;;;;66.38;46.10;;;;;;;;;;4957970;28;20126;-65
2023/12/08 02:47:30;;;;;;;67.07;45.08;;;;;;;;;;4957530;28;20387;-64
2023/12/08 02:49:56;;;;;;;66.65;44.95;;;;;;;;;;4964566;28;20122;-64
2023/12/08 02:52:22;;;;;;;61.75;40.67;;;;;;;;;;4953219;28;20461;-64
2023/12/08 02:54:48;;;;;;;59.28;39.70;;;;;;;;;;4962161;28;20027;-64
2023/12/08 02:57:14;;;;;;;66.55;44.30;;;;;;;;;;4959507;28;20406;-67
2023/12/08 02:59:40;;;;;;;56.53;40.58;;;;;;;;;;4955556;28;20034;-67
2023/12/08 03:02:06;;;;;;;58.25;40.67;;;;;;;;;;4966077;28;20023;-67
2023/12/08 03:04:32;;;;;;;62.75;42.05;;;;;;;;;;4954600;28;20106;-68
2023/12/08 03:06:57;;;;;;;60.08;42.00;;;;;;;;;;4960860;28;20028;-68
2023/12/08 03:09:23;;;;;;;62.83;42.40;;;;;;;;;;4961424;28;20031;-68
2023/12/08 03:11:49;;;;;;;60.22;40.38;;;;;;;;;;4954343;28;20043;-67
2023/12/08 03:14:15;;;;;;;63.72;44.10;;;;;;;;;;4964256;28;20023;-65
2023/12/08 03:16:42;;;;;;;64.90;42.60;;;;;;;;;;4954864;28;20023;-65
2023/12/08 03:19:08;;;;;;;55.92;39.92;;;;;;;;;;4965178;28;20430;-66
2023/12/08 03:21:33;;;;;;;56.70;39.67;;;;;;;;;;4956227;28;20023;-66
2023/12/08 03:23:59;;;;;;;55.63;37.53;;;;;;;;;;4965410;28;20019;-67
2023/12/08 03:26:26;;;;;;;57.83;39.25;;;;;;;;;;4957881;28;20020;-67
2023/12/08 03:28:52;;;;;;;49.95;35.45;;;;;;;;;;4956453;28;20029;-67
2023/12/08 03:31:24;;;;;;;55.97;38.33;;;;;;;;;;4958486;28;20124;-67
2023/12/08 03:33:50;;;;;;;52.70;35.90;;;;;;;;;;4964324;28;20099;-68
2023/12/08 03:36:16;;;;;;;56.35;38.83;;;;;;;;;;4952375;28;20505;-65
2023/12/08 03:38:42;;;;;;;54.70;36.75;;;;;;;;;;4962713;28;20138;-65
2023/12/08 03:41:08;;;;;;;51.92;35.25;;;;;;;;;;4958681;28;20101;-65
2023/12/08 03:43:34;;;;;;;52.55;36.67;;;;;;;;;;4956071;28;20030;-66
2023/12/08 03:46:00;;;;;;;49.13;33.67;;;;;;;;;;4964802;28;20022;-67
2023/12/08 03:48:27;;;;;;;55.25;35.83;;;;;;;;;;4953072;28;20102;-66
2023/12/08 03:50:53;;;;;;;50.25;34.97;;;;;;;;;;4961042;28;20023;-67
2023/12/08 03:53:19;;;;;;;47.67;33.03;;;;;;;;;;4960226;28;20076;-67
2023/12/08 03:55:45;;;;;;;45.15;30.63;;;;;;;;;;4959361;28;20016;-66
2023/12/08 03:58:11;;;;;;;53.03;35.42;;;;;;;;;;4976296;28;20054;-65
2023/12/08 04:00:37;;;;;;;52.28;35.10;;;;;;;;;;4967183;28;20039;-66
2023/12/08 04:03:03;;;;;;;51.10;34.22;;;;;;;;;;4977265;28;20042;-66
2023/12/08 04:05:29;;;;;;;48.92;32.33;;;;;;;;;;4981550;28;20030;-66
2023/12/08 04:07:55;;;;;;;47.40;32.08;;;;;;;;;;4969165;28;20030;-66
2023/12/08 04:10:21;;;;;;;41.97;29.63;;;;;;;;;;4969351;28;20110;-67
2023/12/08 04:12:47;;;;;;;38.72;26.00;;;;;;;;;;4958821;28;20030;-67
2023/12/08 04:15:13;;;;;;;41.25;28.58;;;;;;;;;;4961407;28;20498;-67
2023/12/08 04:17:39;;;;;;;41.00;27.73;;;;;;;;;;4965524;28;20046;-67
2023/12/08 04:20:05;;;;;;;40.70;26.38;;;;;;;;;;4955459;28;20031;-67
2023/12/08 04:22:31;;;;;;;41.55;28.67;;;;;;;;;;4967203;28;20023;-65
2023/12/08 04:24:57;;;;;;;42.53;27.33;;;;;;;;;;4958434;28;20386;-64
2023/12/08 04:27:24;;;;;;;40.08;27.00;;;;;;;;;;4963418;28;20504;-65
2023/12/08 04:29:50;;;;;;;38.72;25.75;;;;;;;;;;4956735;28;20032;-65
2023/12/08 04:32:16;;;;;;;38.08;26.10;;;;;;;;;;4967955;28;20034;-66
2023/12/08 04:34:42;;;;;;;38.42;26.40;;;;;;;;;;4957208;28;20034;-66
2023/12/08 04:37:08;;;;;;;38.65;25.55;;;;;;;;;;4961816;28;20039;-67
2023/12/08 04:39:34;;;;;;;37.13;24.63;;;;;;;;;;4964380;28;20035;-67
2023/12/08 04:42:00;;;;;;;35.65;23.80;;;;;;;;;;4955304;28;20035;-67
2023/12/08 04:44:26;;;;;;;32.83;21.45;;;;;;;;;;4966148;28;20034;-67
2023/12/08 04:46:52;;;;;;;30.20;21.45;;;;;;;;;;4958409;28;20019;-67
2023/12/08 04:49:18;;;;;;;36.03;22.73;;;;;;;;;;4960545;28;20031;-67
2023/12/08 04:51:44;;;;;;;31.67;21.65;;;;;;;;;;4966119;28;20502;-66
2023/12/08 04:54:10;;;;;;;31.23;21.17;;;;;;;;;;4955031;28;20027;-66
2023/12/08 04:56:36;;;;;;;43.20;23.05;;;;;;;;;;4965543;28;20034;-66
2023/12/08 04:59:02;;;;;;;31.75;22.08;;;;;;;;;;4959856;28;20050;-67
2023/12/08 05:01:28;;;;;;;35.95;22.77;;;;;;;;;;4959454;28;20035;-67
2023/12/08 05:03:54;;;;;;;33.35;22.30;;;;;;;;;;4967419;28;20110;-66
2023/12/08 05:06:22;;;;;;;31.60;20.05;;;;;;;;;;4956198;28;20372;-63
2023/12/08 05:08:48;;;;;;;31.48;20.58;;;;;;;;;;4965701;28;20028;-65
2023/12/08 05:11:14;;;;;;;30.23;19.75;;;;;;;;;;4963731;28;20042;-66
2023/12/08 05:13:40;;;;;;;29.08;19.27;;;;;;;;;;4958189;28;20019;-64
2023/12/08 05:16:06;;;;;;;28.75;19.38;;;;;;;;;;4967380;28;20100;-65
2023/12/08 05:18:32;;;;;;;27.55;19.15;;;;;;;;;;4955865;28;20636;-65
2023/12/08 05:20:58;;;;;;;27.27;18.90;;;;;;;;;;4962638;28;20031;-65
2023/12/08 05:23:24;;;;;;;30.30;20.13;;;;;;;;;;4962805;28;20015;-66
2023/12/08 05:25:50;;;;;;;25.55;16.00;;;;;;;;;;4963009;28;20026;-65
2023/12/08 05:28:16;;;;;;;25.75;19.25;;;;;;;;;;4954529;28;20019;-66
2023/12/08 05:30:42;;;;;;;24.88;16.58;;;;;;;;;;4964383;28;20012;-67
2023/12/08 05:33:08;;;;;;;23.95;16.27;;;;;;;;;;4960441;28;20051;-66
2023/12/08 05:35:34;;;;;;;28.20;17.15;;;;;;;;;;4956491;28;20058;-65
2023/12/08 05:38:00;;;;;;;25.38;17.58;;;;;;;;;;4967005;28;20031;-66
2023/12/08 05:40:26;;;;;;;28.17;18.48;;;;;;;;;;4954654;28;20072;-66
2023/12/08 05:42:52;;;;;;;28.02;17.67;;;;;;;;;;4962919;28;20539;-65
2023/12/08 05:45:18;;;;;;;24.33;17.08;;;;;;;;;;4960957;28;20031;-64
2023/12/08 05:47:44;;;;;;;32.97;19.85;;;;;;;;;;4957901;28;20474;-64
2023/12/08 05:50:11;;;;;;;23.35;15.23;;;;;;;;;;4968739;28;20026;-65
2023/12/08 05:52:37;;;;;;;20.65;14.10;;;;;;;;;;4956325;28;20027;-64
2023/12/08 05:55:03;;;;;;;21.05;14.23;;;;;;;;;;4960915;28;20047;-64
2023/12/08 05:57:29;;;;;;;20.55;13.82;;;;;;;;;;4963334;28;20023;-64
2023/12/08 05:59:55;;;;;;;22.52;14.30;;;;;;;;;;4964072;28;20042;-64
2023/12/08 06:02:21;;;;;;;20.33;14.02;;;;;;;;;;4989611;23;20093;-62
2023/12/08 06:04:47;;;;;;;20.17;12.35;;;;;;;;;;4950624;28;20022;-63
2023/12/08 06:07:16;;;;;;;19.55;13.27;;;;;;;;;;4965200;28;20072;-64
2023/12/08 06:09:42;;;;;;;16.08;11.35;;;;;;;;;;4969763;28;20034;-62
2023/12/08 06:12:08;;;;;;;22.33;11.35;;;;;;;;;;4972223;28;20402;-61
2023/12/08 06:14:34;;;;;;;19.10;12.10;;;;;;;;;;4963059;28;20510;-60
2023/12/08 06:17:00;;;;;;;15.95;11.02;;;;;;;;;;4958975;28;20035;-60
2023/12/08 06:19:26;;;;;;;18.67;10.85;;;;;;;;;;4961695;28;20065;-60
2023/12/08 06:21:52;;;;;;;22.88;14.43;;;;;;;;;;4952841;28;20067;-62
2023/12/08 06:24:18;;;;;;;39.45;20.27;;;;;;;;;;4965490;28;20026;-62
2023/12/08 06:26:44;;;;;;;31.05;20.17;;;;;;;;;;4958472;28;20435;-61
2023/12/08 06:29:10;;;;;;;28.35;18.27;;;;;;;;;;4959786;28;20027;-62
2023/12/08 06:31:36;;;;;;;28.65;19.95;;;;;;;;;;4956595;28;20031;-63
2023/12/08 06:34:02;;;;;;;30.08;17.20;;;;;;;;;;4953161;28;20065;-63
2023/12/08 06:36:28;;;;;;;30.30;18.95;;;;;;;;;;4964583;28;20438;-60
2023/12/08 06:38:54;;;;;;;29.00;17.08;;;;;;;;;;4955751;28;20026;-60
2023/12/08 06:41:20;;;;;;;32.80;18.40;;;;;;;;;;4958529;28;20027;-59
2023/12/08 06:43:47;;;;;;;23.10;13.10;;;;;;;;;;4964047;28;20076;-59
2023/12/08 06:46:13;;;;;;;22.00;13.15;;;;;;;;;;4952408;28;20030;-59
2023/12/08 06:48:39;;;;;;;26.08;13.50;;;;;;;;;;4963392;28;20027;-60
2023/12/08 06:51:06;;;;;;;20.08;12.30;;;;;;;;;;4958705;28;20027;-59
2023/12/08 06:53:32;;;;;;;19.05;11.45;;;;;;;;;;4956808;28;20066;-59
2023/12/08 06:55:58;;;;;;;17.90;9.95;;;;;;;;;;4952398;28;20026;-58
2023/12/08 06:58:24;;;;;;;14.80;10.10;;;;;;;;;;4964819;28;20023;-60
2023/12/08 07:00:50;;;;;;;23.83;13.95;;;;;;;;;;4956804;28;20120;-58
2023/12/08 07:03:16;;;;;;;33.88;15.30;;;;;;;;;;4958720;28;20027;-60
2023/12/08 07:05:42;;;;;;;38.25;16.35;;;;;;;;;;4952153;28;20058;-59
2023/12/08 07:08:08;;;;;;;10.48;7.68;;;;;;;;;;4965211;28;20023;-63
2023/12/08 07:10:34;;;;;;;8.50;7.18;;;;;;;;;;4953311;28;20039;-63
2023/12/08 07:13:00;;;;;;;8.40;6.97;;;;;;;;;;4960768;28;20062;-63
2023/12/08 07:15:26;;;;;;;9.30;7.60;;;;;;;;;;4960359;28;20023;-63
2023/12/08 07:17:52;;;;;;;8.93;6.72;;;;;;;;;;4953801;28;20092;-64
2023/12/08 07:20:18;;;;;;;8.80;7.47;;;;;;;;;;4965505;28;20041;-61
2023/12/08 07:22:44;;;;;;;10.43;8.05;;;;;;;;;;4954073;28;20073;-64
2023/12/08 07:25:12;;;;;;;10.18;7.78;;;;;;;;;;4961010;28;20054;-60
2023/12/08 07:27:38;;;;;;;16.05;9.50;;;;;;;;;;4955666;28;20093;-61
2023/12/08 07:30:04;;;;;;;19.02;10.13;;;;;;;;;;4965209;28;20462;-61
2023/12/08 07:32:31;;;;;;;24.77;9.45;;;;;;;;;;4953767;28;20033;-61
2023/12/08 07:34:56;;;;;;;15.60;8.98;;;;;;;;;;4960610;28;20042;-61
2023/12/08 07:37:22;;;;;;;15.07;9.02;;;;;;;;;;4963936;28;20030;-60
2023/12/08 07:39:49;;;;;;;18.42;9.05;;;;;;;;;;4957571;28;20510;-62
2023/12/08 07:42:15;;;;;;;11.82;7.13;;;;;;;;;;4968584;28;20019;-61
2023/12/08 07:44:41;;;;;;;12.35;7.63;;;;;;;;;;4966126;28;20043;-61
2023/12/08 07:47:07;;;;;;;14.23;7.32;;;;;;;;;;4961340;28;20603;-58
2023/12/08 07:49:33;;;;;;;15.07;7.57;;;;;;;;;;4959669;28;20023;-60
2023/12/08 07:51:59;;;;;;;14.02;6.65;;;;;;;;;;4957920;28;20099;-60
2023/12/08 07:54:26;;;;;;;13.18;6.78;;;;;;;;;;4965680;28;20028;-60
2023/12/08 07:56:52;;;;;;;37.50;25.10;;;;;;;;;;4961925;28;20047;-60
2023/12/08 07:59:18;;;;;;;63.88;41.63;;;;;;;;;;4955281;28;20085;-59
2023/12/08 08:01:44;;;;;;;48.05;33.65;;;;;;;;;;4965962;28;20034;-59
2023/12/08 08:04:10;;;;;;;43.42;29.67;;;;;;;;;;4955524;28;20106;-60
2023/12/08 08:06:36;;;;;;;41.33;26.23;;;;;;;;;;4966733;28;20378;-60
2023/12/08 08:09:03;;;;;;;37.13;25.17;;;;;;;;;;4963229;28;20039;-60
2023/12/08 08:11:29;;;;;;;64.70;44.80;;;;;;;;;;4964195;28;20027;-60
2023/12/08 08:13:55;;;;;;;107.65;72.68;;;;;;;;;;4955788;28;20023;-60
2023/12/08 08:16:21;;;;;;;107.40;79.03;;;;;;;;;;4967341;28;20055;-60
2023/12/08 08:18:47;;;;;;;107.30;74.22;;;;;;;;;;4958160;28;20031;-60
2023/12/08 08:21:13;;;;;;;103.05;69.07;;;;;;;;;;4961486;28;20081;-61
2023/12/08 08:23:41;;;;;;;85.25;57.63;;;;;;;;;;4966030;28;20932;-60
2023/12/08 08:26:07;;;;;;;89.00;58.15;;;;;;;;;;4962914;28;20072;-61
2023/12/08 08:28:33;;;;;;;76.03;55.65;;;;;;;;;;4957059;28;20108;-61
2023/12/08 08:30:59;;;;;;;75.53;52.58;;;;;;;;;;4963541;28;20038;-61
2023/12/08 08:33:25;;;;;;;69.20;49.58;;;;;;;;;;4963473;28;20035;-61
2023/12/08 08:35:51;;;;;;;71.47;49.00;;;;;;;;;;4955848;28;20023;-61
2023/12/08 08:38:17;;;;;;;83.45;56.10;;;;;;;;;;4967918;28;20041;-62
2023/12/08 08:40:43;;;;;;;80.00;50.63;;;;;;;;;;4957526;28;20134;-57
2023/12/08 08:43:09;;;;;;;73.07;51.92;;;;;;;;;;4961698;28;20090;-58
2023/12/08 08:45:35;;;;;;;75.05;51.28;;;;;;;;;;4963864;28;20023;-60
2023/12/08 08:48:01;;;;;;;72.95;51.25;;;;;;;;;;4955334;28;20020;-60
2023/12/08 08:50:27;;;;;;;82.20;53.60;;;;;;;;;;4967024;28;20031;-60
2023/12/08 08:52:53;;;;;;;76.95;52.42;;;;;;;;;;4958892;28;20462;-61
2023/12/08 08:55:19;;;;;;;78.85;51.65;;;;;;;;;;4973848;28;20024;-62
2023/12/08 08:57:47;;;;;;;68.47;46.75;;;;;;;;;;4969519;28;20038;-62
2023/12/08 09:00:14;;;;;;;64.10;45.75;;;;;;;;;;4962493;28;20031;-61
2023/12/08 09:02:41;;;;;;;65.75;48.55;;;;;;;;;;4956430;28;20522;-62
2023/12/08 09:05:07;;;;;;;64.85;46.20;;;;;;;;;;4961019;28;20031;-62
2023/12/08 09:07:33;;;;;;;73.25;46.33;;;;;;;;;;4963981;28;20442;-61
2023/12/08 09:09:59;;;;;;;65.85;45.13;;;;;;;;;;4954749;28;20038;-61
2023/12/08 09:12:25;;;;;;;54.47;40.15;;;;;;;;;;4966636;28;20747;-62
2023/12/08 09:14:51;;;;;;;65.07;43.15;;;;;;;;;;4957358;28;20018;-61
2023/12/08 09:17:17;;;;;;;54.80;36.10;;;;;;;;;;4956086;28;20035;-60
2023/12/08 09:19:43;;;;;;;52.22;36.65;;;;;;;;;;4964328;28;20031;-58
2023/12/08 09:22:10;;;;;;;46.20;32.97;;;;;;;;;;4954461;28;20038;-60
2023/12/08 09:24:36;;;;;;;48.08;32.85;;;;;;;;;;4965093;28;20122;-61
2023/12/08 09:27:03;;;;;;;45.38;30.60;;;;;;;;;;4958628;28;20114;-61
2023/12/08 09:29:29;;;;;;;43.17;28.02;;;;;;;;;;4962092;28;20131;-60
2023/12/08 09:31:54;;;;;;;40.95;27.88;;;;;;;;;;4953746;28;20527;-61
2023/12/08 09:34:20;;;;;;;41.97;27.88;;;;;;;;;;4965351;28;20031;-61
2023/12/08 09:36:46;;;;;;;38.90;26.83;;;;;;;;;;4955640;28;20030;-61
2023/12/08 09:39:13;;;;;;;36.28;25.33;;;;;;;;;;4960085;28;20181;-61
2023/12/08 09:41:40;;;;;;;35.42;25.73;;;;;;;;;;4963942;28;20053;-62
2023/12/08 09:44:12;;;;;;;33.30;25.17;;;;;;;;;;4954262;28;20027;-61
2023/12/08 09:46:54;;;;;;;40.92;25.60;;;;;;;;;;4964254;28;20622;-59
2023/12/08 09:49:30;;;;;;;34.40;25.13;;;;;;;;;;4962079;28;20037;-61
2023/12/08 09:51:57;;;;;;;37.88;24.95;;;;;;;;;;4954202;28;20027;-62
2023/12/08 09:54:24;;;;;;;31.67;22.80;;;;;;;;;;4966409;28;20035;-62
2023/12/08 09:56:54;;;;;;;34.08;23.48;;;;;;;;;;4956807;28;20033;-62
2023/12/08 09:59:24;;;;;;;31.20;22.20;;;;;;;;;;4958373;28;20062;-62
2023/12/08 10:01:50;;;;;;;27.70;19.27;;;;;;;;;;4965116;28;20035;-62
2023/12/08 10:04:18;;;;;;;30.80;21.70;;;;;;;;;;4953624;28;20034;-62
2023/12/08 10:06:44;;;;;;;27.70;19.50;;;;;;;;;;4963348;28;20110;-62
2023/12/08 10:09:14;;;;;;;28.17;19.10;;;;;;;;;;4960252;28;20031;-62
2023/12/08 10:11:40;;;;;;;26.60;19.40;;;;;;;;;;4956133;28;20034;-58
2023/12/08 10:14:07;;;;;;;26.88;18.25;;;;;;;;;;4966388;28;20092;-62
2023/12/08 10:16:33;;;;;;;25.33;18.13;;;;;;;;;;4954476;28;20030;-62
2023/12/08 10:19:06;;;;;;;25.85;18.80;;;;;;;;;;4961494;28;20089;-61
2023/12/08 10:21:32;;;;;;;23.80;16.77;;;;;;;;;;4962693;28;20034;-60
2023/12/08 10:24:02;;;;;;;26.52;18.00;;;;;;;;;;4953767;28;20023;-62
2023/12/08 10:26:29;;;;;;;22.10;16.05;;;;;;;;;;4958693;28;20012;-61
2023/12/08 10:28:56;;;;;;;25.38;17.42;;;;;;;;;;4957664;28;20030;-61
2023/12/08 10:31:22;;;;;;;25.27;17.63;;;;;;;;;;4958510;28;20073;-61
2023/12/08 10:33:48;;;;;;;20.77;15.15;;;;;;;;;;4964434;28;20035;-60
2023/12/08 10:36:14;;;;;;;21.60;14.85;;;;;;;;;;4952828;28;20030;-62
2023/12/08 10:38:41;;;;;;;19.95;14.15;;;;;;;;;;4963633;28;20027;-62
2023/12/08 10:41:09;;;;;;;20.58;14.43;;;;;;;;;;4959264;28;20114;-61
2023/12/08 10:43:37;;;;;;;18.50;13.77;;;;;;;;;;4956576;28;20106;-62
2023/12/08 10:46:03;;;;;;;19.38;13.65;;;;;;;;;;4964152;28;20023;-61
2023/12/08 10:48:29;;;;;;;18.95;13.65;;;;;;;;;;4949759;28;20031;-60
2023/12/08 10:50:56;;;;;;;17.55;13.15;;;;;;;;;;4961708;28;20035;-62
2023/12/08 10:53:22;;;;;;;18.63;13.73;;;;;;;;;;4961246;28;20027;-61
2023/12/08 10:56:03;;;;;;;17.73;12.57;;;;;;;;;;4967762;28;20026;-61
2023/12/08 10:58:32;;;;;;;18.48;12.57;;;;;;;;;;4964759;28;20564;-62
2023/12/08 11:00:58;;;;;;;20.38;13.63;;;;;;;;;;4955531;28;20035;-61
2023/12/08 11:03:27;;;;;;;17.65;12.10;;;;;;;;;;4958398;28;20767;-61
2023/12/08 11:05:58;;;;;;;17.98;12.55;;;;;;;;;;4951681;28;20085;-61
2023/12/08 11:08:25;;;;;;;17.10;12.05;;;;;;;;;;4955471;28;20027;-61
2023/12/08 11:10:53;;;;;;;16.98;11.65;;;;;;;;;;4955641;28;20127;-61
2023/12/08 11:13:28;;;;;;;15.07;11.30;;;;;;;;;;4963776;28;20023;-61
2023/12/08 11:16:05;;;;;;;15.82;10.75;;;;;;;;;;4958311;28;20495;-60
2023/12/08 11:18:35;;;;;;;14.27;10.63;;;;;;;;;;4953409;28;20375;-62
2023/12/08 11:21:02;;;;;;;15.27;10.55;;;;;;;;;;4961491;28;20457;-61
2023/12/08 11:23:28;;;;;;;18.55;11.02;;;;;;;;;;4967160;28;20474;-60
2023/12/08 11:26:12;;;;;;;17.27;10.20;;;;;;;;;;4964178;28;20498;-60
2023/12/08 11:28:38;;;;;;;15.63;10.25;;;;;;;;;;4958262;28;20038;-62
2023/12/08 11:31:13;;;;;;;15.07;10.27;;;;;;;;;;4963354;28;20068;-62
2023/12/08 11:33:53;;;;;;;18.08;9.98;;;;;;;;;;4966042;28;20030;-60
2023/12/08 11:36:19;;;;;;;19.65;13.18;;;;;;;;;;4955995;28;20034;-62
2023/12/08 11:38:45;;;;;;;20.60;12.30;;;;;;;;;;4966290;28;20027;-61
2023/12/08 11:41:15;;;;;;;17.17;11.85;;;;;;;;;;4957591;28;20054;-60
2023/12/08 11:43:43;;;;;;;21.35;12.73;;;;;;;;;;4963647;28;20039;-61
2023/12/08 11:46:09;;;;;;;18.58;12.27;;;;;;;;;;4971933;28;20031;-61
2023/12/08 11:48:35;;;;;;;17.10;10.80;;;;;;;;;;4972117;28;20035;-60
2023/12/08 11:51:02;;;;;;;16.27;10.45;;;;;;;;;;4970772;28;20023;-61
2023/12/08 11:53:28;;;;;;;20.60;9.40;;;;;;;;;;4972195;28;20106;-63
2023/12/08 11:55:54;;;;;;;18.25;9.57;;;;;;;;;;4970620;28;20106;-60
2023/12/08 11:58:24;;;;;;;16.95;10.73;;;;;;;;;;4971345;28;20030;-61
2023/12/08 12:00:50;;;;;;;16.65;9.88;;;;;;;;;;4970752;28;20034;-61
2023/12/08 12:03:16;;;;;;;15.35;8.18;;;;;;;;;;4971537;28;20019;-61
2023/12/08 12:05:43;;;;;;;14.23;9.45;;;;;;;;;;4953289;28;20077;-61
2023/12/08 12:08:09;;;;;;;14.68;8.35;;;;;;;;;;4964431;28;20710;-61
2023/12/08 12:10:37;;;;;;;15.30;8.88;;;;;;;;;;4971503;28;20027;-60
2023/12/08 12:13:04;;;;;;;16.00;8.25;;;;;;;;;;4971973;28;20031;-61
2023/12/08 12:15:33;;;;;;;12.85;7.95;;;;;;;;;;4971279;28;20038;-60
2023/12/08 12:17:59;;;;;;;12.95;7.55;;;;;;;;;;4972039;28;20504;-60
2023/12/08 12:20:28;;;;;;;13.60;7.63;;;;;;;;;;4971668;28;20118;-61
2023/12/08 12:22:54;;;;;;;9.65;7.20;;;;;;;;;;4970773;28;20102;-61
2023/12/08 12:25:20;;;;;;;15.32;7.25;;;;;;;;;;4969686;28;20106;-61
2023/12/08 12:27:47;;;;;;;18.75;8.13;;;;;;;;;;4971877;28;20018;-61
2023/12/08 12:30:13;;;;;;;9.82;6.47;;;;;;;;;;4971277;28;20568;-60
2023/12/08 12:32:40;;;;;;;9.90;6.70;;;;;;;;;;4971584;28;20046;-61
2023/12/08 12:35:07;;;;;;;8.55;6.15;;;;;;;;;;4971041;28;20042;-61
2023/12/08 12:37:33;;;;;;;9.45;5.97;;;;;;;;;;4971883;28;20031;-60
2023/12/08 12:39:59;;;;;;;10.95;5.93;;;;;;;;;;4971701;28;20035;-59
2023/12/08 12:42:25;;;;;;;14.55;6.03;;;;;;;;;;4971593;28;20564;-60
2023/12/08 12:44:52;;;;;;;17.52;7.97;;;;;;;;;;4971307;28;20054;-62
2023/12/08 12:47:21;;;;;;;15.63;7.35;;;;;;;;;;4971351;28;20034;-62
2023/12/08 12:50:05;;;;;;;12.60;7.07;;;;;;;;;;4971815;28;20102;-62
2023/12/08 12:52:34;;;;;;;13.07;7.28;;;;;;;;;;4971444;28;20038;-62
2023/12/08 12:55:01;;;;;;;13.00;7.20;;;;;;;;;;4970907;28;20030;-62
2023/12/08 12:57:48;;;;;;;15.98;6.68;;;;;;;;;;4971376;28;20034;-61
2023/12/08 13:00:15;;;;;;;16.80;6.40;;;;;;;;;;4971487;28;20394;-63
2023/12/08 13:02:45;;;;;;;15.40;6.78;;;;;;;;;;4971272;28;20031;-63
2023/12/08 13:05:11;;;;;;;10.38;5.72;;;;;;;;;;4970686;28;20038;-62
2023/12/08 13:07:40;;;;;;;9.90;6.07;;;;;;;;;;4971158;28;20026;-62
2023/12/08 13:10:09;;;;;;;11.55;6.40;;;;;;;;;;4971337;28;20052;-63
2023/12/08 13:12:35;;;;;;;15.23;6.45;;;;;;;;;;4971143;28;20041;-62
2023/12/08 13:15:01;;;;;;;15.20;6.45;;;;;;;;;;4970663;28;20033;-61
2023/12/08 13:17:27;;;;;;;35.83;7.22;;;;;;;;;;4971140;28;20035;-61
2023/12/08 13:19:54;;;;;;;17.23;5.45;;;;;;;;;;4971016;28;20100;-62
2023/12/08 13:22:20;;;;;;;11.57;5.53;;;;;;;;;;4971566;28;20385;-62
2023/12/08 13:24:47;;;;;;;9.45;4.82;;;;;;;;;;4971037;28;20156;-59
2023/12/08 13:27:17;;;;;;;13.35;4.32;;;;;;;;;;4970571;28;20065;-61
2023/12/08 13:29:43;;;;;;;6.00;4.07;;;;;;;;;;4978883;28;20092;-59
2023/12/08 13:32:09;;;;;;;9.45;4.30;;;;;;;;;;4970436;28;20049;-60
2023/12/08 13:34:35;;;;;;;28.95;3.95;;;;;;;;;;4969621;28;20063;-60
2023/12/08 13:37:02;;;;;;;7.88;3.70;;;;;;;;;;4970646;28;20437;-61
2023/12/08 13:39:28;;;;;;;10.68;3.95;;;;;;;;;;4969541;28;20027;-61
2023/12/08 13:41:55;;;;;;;13.20;4.63;;;;;;;;;;4969785;28;20047;-61
2023/12/08 13:44:21;;;;;;;12.13;4.28;;;;;;;;;;4969022;28;20030;-61
2023/12/08 13:46:46;;;;;;;6.13;4.10;;;;;;;;;;4968597;28;20045;-57
2023/12/08 13:49:12;;;;;;;7.22;4.38;;;;;;;;;;4968907;28;20035;-60
2023/12/08 13:51:38;;;;;;;10.10;4.03;;;;;;;;;;4970006;28;20536;-60
2023/12/08 13:54:04;;;;;;;11.02;3.88;;;;;;;;;;4970266;28;20069;-60
2023/12/08 13:56:31;;;;;;;15.27;3.40;;;;;;;;;;4969246;28;20027;-60
2023/12/08 13:58:57;;;;;;;11.18;3.60;;;;;;;;;;4970806;28;20394;-60
2023/12/08 14:01:23;;;;;;;7.70;3.67;;;;;;;;;;4969464;28;20030;-59
2023/12/08 14:03:49;;;;;;;6.35;3.20;;;;;;;;;;4970214;28;20052;-60
2023/12/08 14:06:15;;;;;;;4.85;3.08;;;;;;;;;;4969850;28;20023;-60
2023/12/08 14:08:41;;;;;;;5.97;3.28;;;;;;;;;;4970578;28;20042;-61
2023/12/08 14:11:07;;;;;;;3.78;2.17;;;;;;;;;;4970489;28;20030;-60
2023/12/08 14:13:33;;;;;;;4.95;2.60;;;;;;;;;;4970350;28;20027;-60
2023/12/08 14:15:59;;;;;;;3.53;2.53;;;;;;;;;;4969687;28;20514;-60